createdAt,value
2019-02-12T00:00:31.013Z,14.73
2019-02-12T00:03:00.966Z,15.80
2019-02-12T00:05:29.430Z,7.63
2019-02-12T00:07:57.851Z,13.97
2019-02-12T00:10:26.307Z,11.23
2019-02-12T00:12:54.784Z,9.57
2019-02-12T00:15:23.221Z,11.00
2019-02-12T00:17:51.771Z,12.37
2019-02-12T00:20:20.183Z,13.27
2019-02-12T00:22:48.635Z,8.70
2019-02-12T00:25:17.073Z,14.27
2019-02-12T00:27:45.472Z,12.33
2019-02-12T00:30:14.508Z,9.57
2019-02-12T00:32:42.959Z,8.23
2019-02-12T00:35:11.442Z,7.77
2019-02-12T00:37:39.961Z,8.33
2019-02-12T00:40:10.022Z,10.90
2019-02-12T00:42:38.616Z,7.33
2019-02-12T00:45:09.592Z,8.60
2019-02-12T00:47:38.103Z,8.87
2019-02-12T00:50:09.337Z,11.23
2019-02-12T00:52:37.880Z,12.13
2019-02-12T00:55:08.232Z,10.47
2019-02-12T00:57:36.688Z,10.73
2019-02-12T01:00:11.182Z,8.77
2019-02-12T01:02:39.598Z,9.80
2019-02-12T01:05:08.282Z,9.93
2019-02-12T01:07:36.738Z,9.57
2019-02-12T01:10:08.684Z,9.80
2019-02-12T01:12:37.343Z,9.00
2019-02-12T01:15:08.898Z,6.57
2019-02-12T01:17:37.715Z,12.60
2019-02-12T01:20:09.265Z,13.07
2019-02-12T01:22:37.790Z,8.67
2019-02-12T01:25:08.154Z,7.07
2019-02-12T01:27:36.597Z,8.17
2019-02-12T01:30:10.566Z,5.73
2019-02-12T01:32:39.346Z,8.70
2019-02-12T01:35:07.903Z,10.03
2019-02-12T01:37:36.356Z,7.17
2019-02-12T01:40:05.840Z,8.00
2019-02-12T01:42:34.262Z,8.87
2019-02-12T01:45:02.706Z,6.47
2019-02-12T01:47:31.134Z,8.83
2019-02-12T01:50:05.992Z,7.17
2019-02-12T01:52:34.460Z,9.83
2019-02-12T01:55:02.995Z,10.37
2019-02-12T01:57:31.425Z,6.93
2019-02-12T01:59:59.863Z,7.70
2019-02-12T02:02:28.370Z,10.90
2019-02-12T02:04:56.794Z,10.83
2019-02-12T02:07:25.231Z,9.87
2019-02-12T02:09:53.729Z,11.80
2019-02-12T02:12:22.130Z,12.27
2019-02-12T02:14:50.588Z,5.67
2019-02-12T02:17:18.999Z,11.13
2019-02-12T02:19:47.411Z,11.17
2019-02-12T02:22:15.866Z,7.80
2019-02-12T02:24:44.284Z,9.23
2019-02-12T02:27:12.700Z,7.97
2019-02-12T02:29:41.982Z,16.27
2019-02-12T02:32:10.386Z,7.60
2019-02-12T02:34:38.792Z,7.27
2019-02-12T02:37:07.411Z,11.43
2019-02-12T02:39:35.849Z,10.00
2019-02-12T02:42:04.295Z,9.83
2019-02-12T02:44:32.740Z,10.07
2019-02-12T02:47:01.176Z,9.27
2019-02-12T02:49:29.593Z,9.20
2019-02-12T02:51:58.054Z,11.07
2019-02-12T02:54:26.463Z,8.60
2019-02-12T02:56:54.894Z,13.00
2019-02-12T02:59:23.315Z,8.00
2019-02-12T03:01:51.754Z,2.50
2019-02-12T03:04:20.257Z,8.57
2019-02-12T03:06:48.701Z,7.57
2019-02-12T03:09:17.135Z,11.23
2019-02-12T03:11:45.539Z,8.10
2019-02-12T03:14:14.461Z,14.10
2019-02-12T03:16:42.857Z,4.73
2019-02-12T03:19:11.268Z,8.67
2019-02-12T03:21:39.719Z,11.57
2019-02-12T03:24:08.135Z,10.43
2019-02-12T03:26:36.537Z,13.37
2019-02-12T03:29:05.080Z,8.97
2019-02-12T03:31:33.457Z,9.13
2019-02-12T03:34:01.866Z,7.93
2019-02-12T03:36:31.840Z,11.37
2019-02-12T03:39:00.243Z,9.87
2019-02-12T03:41:28.772Z,10.37
2019-02-12T03:43:57.205Z,10.73
2019-02-12T03:46:25.646Z,9.60
2019-02-12T03:48:54.099Z,11.90
2019-02-12T03:51:22.617Z,9.03
2019-02-12T03:53:51.037Z,14.73
2019-02-12T03:56:19.533Z,12.10
2019-02-12T03:58:47.938Z,7.67
2019-02-12T04:01:16.635Z,15.27
2019-02-12T04:03:46.006Z,14.40
2019-02-12T04:06:14.429Z,15.70
2019-02-12T04:08:42.887Z,12.10
2019-02-12T04:11:11.300Z,15.93
2019-02-12T04:13:39.775Z,18.90
2019-02-12T04:16:08.244Z,21.13
2019-02-12T04:18:36.660Z,13.70
2019-02-12T04:21:05.099Z,18.70
2019-02-12T04:23:33.639Z,13.63
2019-02-12T04:26:02.062Z,10.07
2019-02-12T04:28:30.493Z,12.07
2019-02-12T04:30:58.898Z,12.80
2019-02-12T04:33:27.333Z,15.33
2019-02-12T04:35:55.781Z,12.50
2019-02-12T04:38:24.192Z,12.03
2019-02-12T04:40:52.617Z,8.93
2019-02-12T04:43:21.082Z,10.30
2019-02-12T04:45:49.493Z,5.90
2019-02-12T04:48:17.942Z,13.70
2019-02-12T04:50:46.378Z,9.20
2019-02-12T04:53:14.827Z,11.57
2019-02-12T04:55:43.251Z,18.83
2019-02-12T04:58:11.672Z,16.77
2019-02-12T05:00:40.119Z,7.03
2019-02-12T05:03:08.565Z,9.43
2019-02-12T05:05:37.014Z,10.67
2019-02-12T05:08:05.430Z,9.70
2019-02-12T05:10:39.609Z,5.23
2019-02-12T05:13:08.036Z,9.63
2019-02-12T05:15:36.476Z,7.43
2019-02-12T05:18:04.878Z,9.50
2019-02-12T05:20:36.094Z,10.03
2019-02-12T05:23:04.545Z,9.87
2019-02-12T05:25:32.949Z,5.83
2019-02-12T05:28:01.392Z,9.17
2019-02-12T05:30:29.836Z,12.03
2019-02-12T05:32:58.276Z,13.93
2019-02-12T05:35:26.746Z,15.40
2019-02-12T05:37:55.149Z,17.20
2019-02-12T05:40:23.576Z,11.37
2019-02-12T05:42:52.033Z,11.50
2019-02-12T05:45:20.435Z,7.50
2019-02-12T05:47:48.866Z,9.23
2019-02-12T05:50:18.644Z,8.17
2019-02-12T05:52:53.990Z,13.13
2019-02-12T05:55:17.212Z,12.43
2019-02-12T05:57:45.680Z,10.33
2019-02-12T06:00:20.228Z,7.80
2019-02-12T06:02:48.646Z,7.90
2019-02-12T06:05:28.249Z,7.33
2019-02-12T06:07:56.737Z,4.90
2019-02-12T06:10:25.165Z,7.47
2019-02-12T06:12:53.634Z,13.90
2019-02-12T06:15:22.160Z,15.90
2019-02-12T06:17:50.585Z,9.03
2019-02-12T06:20:18.996Z,9.87
2019-02-12T06:22:47.508Z,12.07
2019-02-12T06:25:15.934Z,9.80
2019-02-12T06:27:44.394Z,33.83
2019-02-12T06:30:12.861Z,9.00
2019-02-12T06:32:41.305Z,10.97
2019-02-12T06:35:10.559Z,11.47
2019-02-12T06:37:39.037Z,6.30
2019-02-12T06:40:10.802Z,16.47
2019-02-12T06:42:39.310Z,4.70
2019-02-12T06:45:11.015Z,9.63
2019-02-12T06:47:39.418Z,10.57
2019-02-12T06:50:10.787Z,8.40
2019-02-12T06:52:39.251Z,9.00
2019-02-12T06:55:09.730Z,8.37
2019-02-12T06:57:38.151Z,9.17
2019-02-12T07:00:09.806Z,4.97
2019-02-12T07:03:03.993Z,10.10
2019-02-12T07:05:32.426Z,8.70
2019-02-12T07:08:25.183Z,10.80
2019-02-12T07:10:56.655Z,5.67
2019-02-12T07:13:30.714Z,6.03
2019-02-12T07:16:02.175Z,8.70
2019-02-12T07:19:04.863Z,15.33
2019-02-12T07:21:39.215Z,8.77
2019-02-12T07:24:31.619Z,9.30
2019-02-12T07:27:08.912Z,6.33
2019-02-12T07:29:58.556Z,8.57
2019-02-12T07:32:32.598Z,11.13
2019-02-12T07:35:21.828Z,6.20
2019-02-12T07:38:08.123Z,10.23
2019-02-12T07:40:42.770Z,9.37
2019-02-12T07:43:14.194Z,6.80
2019-02-12T07:45:54.440Z,11.83
2019-02-12T07:48:38.159Z,16.83
2019-02-12T07:51:09.641Z,20.27
2019-02-12T07:53:53.179Z,11.73
2019-02-12T07:56:39.818Z,15.10
2019-02-12T07:59:20.174Z,9.87
2019-02-12T08:01:57.244Z,9.97
2019-02-12T08:04:37.424Z,14.93
2019-02-12T08:07:33.000Z,14.23
2019-02-12T08:10:25.874Z,18.07
2019-02-12T08:12:57.363Z,9.50
2019-02-12T08:15:51.611Z,19.43
2019-02-12T08:18:26.056Z,12.63
2019-02-12T08:21:06.523Z,13.87
2019-02-12T08:23:59.168Z,9.00
2019-02-12T08:26:30.628Z,12.27
2019-02-12T08:29:13.443Z,11.47
2019-02-12T08:31:56.827Z,10.33
2019-02-12T08:34:28.316Z,12.30
2019-02-12T08:37:14.728Z,10.63
2019-02-12T08:40:04.280Z,9.20
2019-02-12T08:42:44.563Z,16.13
2019-02-12T08:45:40.363Z,12.90
2019-02-12T08:48:11.808Z,8.80
2019-02-12T08:50:52.024Z,10.73
2019-02-12T08:53:35.420Z,13.20
2019-02-12T08:56:23.330Z,8.90
2019-02-12T08:59:00.816Z,15.80
2019-02-12T09:01:38.208Z,10.43
2019-02-12T09:04:32.546Z,6.37
2019-02-12T09:07:10.046Z,10.97
2019-02-12T09:10:04.295Z,8.27
2019-02-12T09:12:54.067Z,9.93
2019-02-12T09:15:52.706Z,8.03
2019-02-12T09:18:35.863Z,7.30
2019-02-12T09:21:26.897Z,10.40
2019-02-12T09:24:03.302Z,7.60
2019-02-12T09:26:46.270Z,8.43
2019-02-12T09:29:26.630Z,7.00
2019-02-12T09:32:09.859Z,7.20
2019-02-12T09:34:41.419Z,9.43
2019-02-12T09:37:28.079Z,9.83
2019-02-12T09:40:19.548Z,6.13
2019-02-12T09:43:22.045Z,11.03
2019-02-12T09:45:59.329Z,7.30
2019-02-12T09:48:39.591Z,10.87
2019-02-12T09:51:29.055Z,9.80
2019-02-12T09:54:08.744Z,5.47
2019-02-12T09:57:03.202Z,10.63
2019-02-12T09:59:46.200Z,9.90
2019-02-12T10:02:44.993Z,10.67
2019-02-12T10:05:22.384Z,11.40
2019-02-12T10:08:11.488Z,9.60
2019-02-12T10:10:51.651Z,14.33
2019-02-12T10:13:26.195Z,8.33
2019-02-12T10:16:00.473Z,6.07
2019-02-12T10:18:40.511Z,11.83
2019-02-12T10:21:28.644Z,12.40
2019-02-12T10:24:19.015Z,10.60
2019-02-12T10:26:41.914Z,15.20
2019-02-12T10:29:16.248Z,9.67
2019-02-12T10:31:43.679Z,10.00
2019-02-12T10:34:12.130Z,6.90
2019-02-12T10:36:40.692Z,15.20
2019-02-12T10:39:10.465Z,12.87
2019-02-12T10:41:38.896Z,10.50
2019-02-12T10:44:07.316Z,12.63
2019-02-12T10:46:35.742Z,9.30
2019-02-12T10:49:04.321Z,8.70
2019-02-12T10:51:32.751Z,9.03
2019-02-12T10:54:01.179Z,7.80
2019-02-12T10:56:29.659Z,12.60
2019-02-12T10:58:58.100Z,10.57
2019-02-12T11:01:26.589Z,9.17
2019-02-12T11:03:55.066Z,13.00
2019-02-12T11:06:23.516Z,7.57
2019-02-12T11:08:51.964Z,9.90
2019-02-12T11:11:20.382Z,13.10
2019-02-12T11:13:48.828Z,7.57
2019-02-12T11:16:17.233Z,16.10
2019-02-12T11:18:45.705Z,9.87
2019-02-12T11:21:14.205Z,8.07
2019-02-12T11:23:42.606Z,10.53
2019-02-12T11:26:11.021Z,8.33
2019-02-12T11:28:39.493Z,10.83
2019-02-12T11:31:07.939Z,7.70
2019-02-12T11:33:36.386Z,15.10
2019-02-12T11:36:04.861Z,10.50
2019-02-12T11:38:33.320Z,13.03
2019-02-12T11:41:01.784Z,6.23
2019-02-12T11:43:30.217Z,12.43
2019-02-12T11:45:58.648Z,10.70
2019-02-12T11:48:27.147Z,11.40
2019-02-12T11:50:55.622Z,8.70
2019-02-12T11:53:24.112Z,8.70
2019-02-12T11:55:52.613Z,8.10
2019-02-12T11:58:21.035Z,6.70
2019-02-12T12:00:51.122Z,3.73
2019-02-12T12:03:19.582Z,11.17
2019-02-12T12:05:48.019Z,7.23
2019-02-12T12:08:16.446Z,11.30
2019-02-12T12:10:44.878Z,13.10
2019-02-12T12:13:13.299Z,10.27
2019-02-12T12:15:41.744Z,10.03
2019-02-12T12:18:10.147Z,8.60
2019-02-12T12:20:38.580Z,10.80
2019-02-12T12:23:07.012Z,15.60
2019-02-12T12:25:35.428Z,6.13
2019-02-12T12:28:03.855Z,9.90
2019-02-12T12:30:32.299Z,7.93
2019-02-12T12:33:00.731Z,12.63
2019-02-12T12:35:29.140Z,8.80
2019-02-12T12:37:57.601Z,9.10
2019-02-12T12:40:26.034Z,8.37
2019-02-12T12:42:54.448Z,10.27
2019-02-12T12:45:22.896Z,10.00
2019-02-12T12:47:51.367Z,10.77
2019-02-12T12:50:19.762Z,6.57
2019-02-12T12:52:48.220Z,5.30
2019-02-12T12:55:16.649Z,14.30
2019-02-12T12:57:45.081Z,10.77
2019-02-12T13:00:15.544Z,6.97
2019-02-12T13:02:43.990Z,7.93
2019-02-12T13:05:12.473Z,7.63
2019-02-12T13:07:40.954Z,9.03
2019-02-12T13:10:14.542Z,10.00
2019-02-12T13:12:43.049Z,12.10
2019-02-12T13:15:13.419Z,11.50
2019-02-12T13:17:41.897Z,7.40
2019-02-12T13:20:16.057Z,7.40
2019-02-12T13:22:44.504Z,9.53
2019-02-12T13:25:13.007Z,13.63
2019-02-12T13:27:41.425Z,7.50
2019-02-12T13:30:12.909Z,8.43
2019-02-12T13:32:41.335Z,7.87
2019-02-12T13:35:10.921Z,11.57
2019-02-12T13:37:39.415Z,6.03
2019-02-12T13:40:10.777Z,15.80
2019-02-12T13:42:39.283Z,10.07
2019-02-12T13:45:15.576Z,9.43
2019-02-12T13:47:44.027Z,9.30
2019-02-12T13:50:13.517Z,9.57
2019-02-12T13:52:42.100Z,13.53
2019-02-12T13:55:17.274Z,3.33
2019-02-12T13:57:41.948Z,6.57
2019-02-12T14:00:15.733Z,4.20
2019-02-12T14:02:44.235Z,6.93
2019-02-12T14:05:18.670Z,3.93
2019-02-12T14:07:47.077Z,8.17
2019-02-12T14:10:15.618Z,7.50
2019-02-12T14:12:44.067Z,8.27
2019-02-12T14:15:14.204Z,7.23
2019-02-12T14:17:42.710Z,4.23
2019-02-12T14:20:17.982Z,5.77
2019-02-12T14:22:46.507Z,5.53
2019-02-12T14:25:16.281Z,6.97
2019-02-12T14:27:44.720Z,9.67
2019-02-12T14:30:15.925Z,6.00
2019-02-12T14:32:45.168Z,6.30
2019-02-12T14:35:13.689Z,6.60
2019-02-12T14:37:42.080Z,9.60
2019-02-12T14:40:12.496Z,7.93
2019-02-12T14:42:40.904Z,3.10
2019-02-12T14:45:15.161Z,6.53
2019-02-12T14:47:43.665Z,3.87
2019-02-12T14:50:13.636Z,10.83
2019-02-12T14:52:42.061Z,7.20
2019-02-12T14:55:10.626Z,5.10
2019-02-12T14:57:39.066Z,7.97
2019-02-12T15:00:13.400Z,11.43
2019-02-12T15:02:41.879Z,5.67
2019-02-12T15:05:10.396Z,10.70
2019-02-12T15:07:38.858Z,7.43
2019-02-12T15:10:10.438Z,15.60
2019-02-12T15:12:38.882Z,7.10
2019-02-12T15:15:09.654Z,8.57
2019-02-12T15:17:38.103Z,7.67
2019-02-12T15:20:11.708Z,7.70
2019-02-12T15:22:40.279Z,8.63
2019-02-12T15:25:12.444Z,6.57
2019-02-12T15:27:40.877Z,8.23
2019-02-12T15:30:17.517Z,7.27
2019-02-12T15:32:45.928Z,10.70
2019-02-12T15:35:14.552Z,10.00
2019-02-12T15:37:43.062Z,7.27
2019-02-12T15:40:16.930Z,10.80
2019-02-12T15:42:45.426Z,7.43
2019-02-12T15:45:19.472Z,6.17
2019-02-12T15:47:57.569Z,8.07
2019-02-12T15:50:25.967Z,12.73
2019-02-12T15:52:55.057Z,4.77
2019-02-12T15:55:23.498Z,8.00
2019-02-12T15:57:51.969Z,9.00
2019-02-12T16:00:20.985Z,14.03
2019-02-12T16:02:49.441Z,10.90
2019-02-12T16:05:17.916Z,8.53
2019-02-12T16:07:47.464Z,9.20
2019-02-12T16:10:21.296Z,7.83
2019-02-12T16:12:51.577Z,7.40
2019-02-12T16:15:23.893Z,9.57
2019-02-12T16:17:51.178Z,10.13
2019-02-12T16:20:19.639Z,14.33
2019-02-12T16:22:48.118Z,14.37
2019-02-12T16:25:16.538Z,7.57
2019-02-12T16:27:45.089Z,10.07
2019-02-12T16:30:16.040Z,9.67
2019-02-12T16:32:44.612Z,11.07
2019-02-12T16:35:15.061Z,9.03
2019-02-12T16:37:43.686Z,12.20
2019-02-12T16:40:14.238Z,18.17
2019-02-12T16:42:42.735Z,14.47
2019-02-12T16:45:14.615Z,15.03
2019-02-12T16:47:43.030Z,19.30
2019-02-12T16:50:11.562Z,15.80
2019-02-12T16:52:40.044Z,11.80
2019-02-12T16:55:10.304Z,15.13
2019-02-12T16:57:38.830Z,10.03
2019-02-12T17:00:15.728Z,7.53
2019-02-12T17:02:44.182Z,8.30
2019-02-12T17:05:14.541Z,10.20
2019-02-12T17:07:44.811Z,14.40
2019-02-12T17:10:13.781Z,9.50
2019-02-12T17:12:42.330Z,11.17
2019-02-12T17:15:12.709Z,16.93
2019-02-12T17:17:41.154Z,10.13
2019-02-12T17:20:23.624Z,12.37
2019-02-12T17:22:52.127Z,11.10
2019-02-12T17:25:20.607Z,13.47
2019-02-12T17:27:50.531Z,11.40
2019-02-12T17:30:19.472Z,9.93
2019-02-12T17:32:47.984Z,16.03
2019-02-12T17:35:16.468Z,9.43
2019-02-12T17:37:44.968Z,9.03
2019-02-12T17:40:15.637Z,13.60
2019-02-12T17:42:44.348Z,12.80
2019-02-12T17:45:14.471Z,16.57
2019-02-12T17:47:43.037Z,13.43
2019-02-12T17:50:15.831Z,15.70
2019-02-12T17:52:44.289Z,19.90
2019-02-12T17:55:13.203Z,11.13
2019-02-12T17:57:52.544Z,12.83
2019-02-12T18:00:21.158Z,11.17
2019-02-12T18:02:49.637Z,15.20
2019-02-12T18:05:18.171Z,12.27
2019-02-12T18:07:46.649Z,12.70
2019-02-12T18:10:15.270Z,12.00
2019-02-12T18:12:43.715Z,13.03
2019-02-12T18:15:15.383Z,13.10
2019-02-12T18:17:43.844Z,15.03
2019-02-12T18:20:16.391Z,18.67
2019-02-12T18:22:44.932Z,19.27
2019-02-12T18:25:13.538Z,9.07
2019-02-12T18:27:42.177Z,13.40
2019-02-12T18:30:13.570Z,16.10
2019-02-12T18:32:42.067Z,19.53
2019-02-12T18:35:10.546Z,20.17
2019-02-12T18:37:39.093Z,11.90
2019-02-12T18:40:12.737Z,15.90
2019-02-12T18:42:41.387Z,15.50
2019-02-12T18:45:12.920Z,13.43
2019-02-12T18:47:41.331Z,14.07
2019-02-12T18:50:12.045Z,17.43
2019-02-12T18:52:40.651Z,12.53
2019-02-12T18:55:11.315Z,18.70
2019-02-12T18:57:39.809Z,14.37
2019-02-12T19:00:11.412Z,22.23
2019-02-12T19:02:40.114Z,16.57
2019-02-12T19:05:10.430Z,23.00
2019-02-12T19:07:39.070Z,18.83
2019-02-12T19:10:12.899Z,15.13
2019-02-12T19:12:41.335Z,11.30
2019-02-12T19:15:12.309Z,17.00
2019-02-12T19:17:41.221Z,17.30
2019-02-12T19:20:13.965Z,15.50
2019-02-12T19:22:42.672Z,21.60
2019-02-12T19:25:11.734Z,21.87
2019-02-12T19:27:40.321Z,26.40
2019-02-12T19:30:16.589Z,22.53
2019-02-12T19:32:45.069Z,17.50
2019-02-12T19:35:13.505Z,23.37
2019-02-12T19:37:41.965Z,19.40
2019-02-12T19:40:13.921Z,23.77
2019-02-12T19:42:42.373Z,26.03
2019-02-12T19:45:16.236Z,25.63
2019-02-12T19:47:44.832Z,22.10
2019-02-12T19:50:13.360Z,24.40
2019-02-12T19:52:41.784Z,22.93
2019-02-12T19:55:11.199Z,18.77
2019-02-12T19:57:39.678Z,19.17
2019-02-12T20:00:17.440Z,25.87
2019-02-12T20:02:45.893Z,24.60
2019-02-12T20:05:14.479Z,20.80
2019-02-12T20:07:43.002Z,28.07
2019-02-12T20:10:13.036Z,22.07
2019-02-12T20:12:41.496Z,18.87
2019-02-12T20:15:15.643Z,20.27
2019-02-12T20:17:44.102Z,25.27
2019-02-12T20:20:13.515Z,20.97
2019-02-12T20:22:41.982Z,25.13
2019-02-12T20:25:11.874Z,22.87
2019-02-12T20:27:40.271Z,24.33
2019-02-12T20:30:14.170Z,26.37
2019-02-12T20:32:42.657Z,23.47
2019-02-12T20:35:13.791Z,24.87
2019-02-12T20:37:42.387Z,27.40
2019-02-12T20:40:13.139Z,23.87
2019-02-12T20:42:41.761Z,31.40
2019-02-12T20:45:17.943Z,34.07
2019-02-12T20:47:46.548Z,27.53
2019-02-12T20:50:17.285Z,29.00
2019-02-12T20:52:45.825Z,25.53
2019-02-12T20:55:14.213Z,30.23
2019-02-12T20:57:42.681Z,29.30
2019-02-12T21:00:16.450Z,29.70
2019-02-12T21:02:44.985Z,27.77
2019-02-12T21:05:15.467Z,30.93
2019-02-12T21:07:43.963Z,29.63
2019-02-12T21:10:33.159Z,25.33
2019-02-12T21:13:01.991Z,22.83
2019-02-12T21:15:31.010Z,29.47
2019-02-12T21:17:59.484Z,30.30
2019-02-12T21:20:27.948Z,25.20
2019-02-12T21:22:57.047Z,28.50
2019-02-12T21:25:25.501Z,29.77
2019-02-12T21:27:53.930Z,31.37
2019-02-12T21:30:27.484Z,31.27
2019-02-12T21:32:57.389Z,34.10
2019-02-12T21:35:26.714Z,27.37
2019-02-12T21:37:55.150Z,31.07
2019-02-12T21:40:25.303Z,39.43
2019-02-12T21:42:53.908Z,38.97
2019-02-12T21:45:22.415Z,33.90
2019-02-12T21:47:50.830Z,32.93
2019-02-12T21:50:19.286Z,30.47
2019-02-12T21:52:47.762Z,31.90
2019-02-12T21:55:18.602Z,36.17
2019-02-12T21:57:47.142Z,40.87
2019-02-12T22:00:22.429Z,33.93
2019-02-12T22:02:51.009Z,30.17
2019-02-12T22:05:19.518Z,31.90
2019-02-12T22:07:48.000Z,35.73
2019-02-12T22:10:24.982Z,35.20
2019-02-12T22:12:53.602Z,41.93
2019-02-12T22:15:22.088Z,31.07
2019-02-12T22:17:50.772Z,37.30
2019-02-12T22:20:23.620Z,35.20
2019-02-12T22:22:52.199Z,34.17
2019-02-12T22:25:21.391Z,37.87
2019-02-12T22:27:49.827Z,33.50
2019-02-12T22:30:27.503Z,36.07
2019-02-12T22:32:57.286Z,33.57
2019-02-12T22:35:25.824Z,35.60
2019-02-12T22:37:54.348Z,33.63
2019-02-12T22:40:22.808Z,35.17
2019-02-12T22:42:51.328Z,36.80
2019-02-12T22:45:24.076Z,35.20
2019-02-12T22:47:52.994Z,37.50
2019-02-12T22:50:21.407Z,32.13
2019-02-12T22:52:49.861Z,31.87
2019-02-12T22:55:18.356Z,34.13
2019-02-12T22:57:49.300Z,34.83
2019-02-12T23:00:33.535Z,34.00
2019-02-12T23:03:02.121Z,33.20
2019-02-12T23:05:30.570Z,35.83
2019-02-12T23:07:59.095Z,38.17
2019-02-12T23:10:27.527Z,34.87
2019-02-12T23:12:56.361Z,32.07
2019-02-12T23:15:24.855Z,35.93
2019-02-12T23:17:53.283Z,38.30
2019-02-12T23:20:21.720Z,32.83
2019-02-12T23:22:53.705Z,37.67
2019-02-12T23:25:22.104Z,40.77
2019-02-12T23:27:57.255Z,43.20
2019-02-12T23:30:20.813Z,40.17
2019-02-12T23:32:49.246Z,44.07
2019-02-12T23:35:17.682Z,38.00
2019-02-12T23:37:46.266Z,40.87
2019-02-12T23:40:14.717Z,36.93
2019-02-12T23:42:43.207Z,40.37
2019-02-12T23:45:11.707Z,42.83
2019-02-12T23:47:40.154Z,39.83
2019-02-12T23:50:10.846Z,40.67
2019-02-12T23:52:39.342Z,40.07
2019-02-12T23:55:08.479Z,32.43
2019-02-12T23:57:36.892Z,39.97
